Time;durP1;ratioP1;P1;durP2;ratioP2;P2;SDS_P1;SDS_P2;PMS_P1;PMS_P2;Temp;Humidity;BMP_temperature;BMP_pressure;BME280_temperature;BME280_humidity;BME280_pressure;Samples;Min_cycle;Max_cycle;Signal;HPM_P1;HPM_P2
2023/08/05 00:02:13;;;;;;;;;;;;;;;26.79;42.29;100301.00;5077264;28;1049;-26
2023/08/05 00:04:39;;;;;;;;;;;;;;;26.85;42.33;100308.31;5088842;28;1155;-24
2023/08/05 00:07:04;;;;;;;;;;;;;;;26.86;42.36;100312.69;5083051;28;1150;-24
2023/08/05 00:09:30;;;;;;;;;;;;;;;26.88;42.26;100309.78;5083848;28;1981;-26
2023/08/05 00:11:55;;;;;;;;;;;;;;;26.85;42.34;100308.31;5076256;28;1067;-29
2023/08/05 00:14:21;;;;;;;;;;;;;;;26.88;42.15;100316.03;5078757;28;1137;-25
2023/08/05 00:16:47;;;;;;;;;;;;;;;26.85;42.33;100316.41;5095899;28;1106;-27
2023/08/05 00:19:12;;;;;;;;;;;;;;;26.90;42.00;100315.84;5084193;28;1230;-24
2023/08/05 00:21:38;;;;;;;;;;;;;;;26.92;42.05;100311.09;5077326;28;1114;-26
2023/08/05 00:24:03;;;;;;;;;;;;;;;26.94;42.04;100310.88;5091615;28;1035;-29
2023/08/05 00:26:29;;;;;;;;;;;;;;;26.95;42.05;100316.09;5086935;28;1149;-25
2023/08/05 00:28:55;;;;;;;;;;;;;;;26.92;41.93;100315.63;5082517;28;1965;-26
2023/08/05 00:31:20;;;;;;;;;;;;;;;27.00;41.95;100313.66;5087390;28;1194;-27
2023/08/05 00:33:46;;;;;;;;;;;;;;;27.13;41.40;100315.66;5100676;28;1059;-24
2023/08/05 00:36:12;;;;;;;;;;;;;;;27.19;41.14;100311.38;5081544;28;1119;-25
2023/08/05 00:38:37;;;;;;;;;;;;;;;27.17;41.39;100307.19;5074531;28;1202;-24
2023/08/05 00:41:03;;;;;;;;;;;;;;;27.06;41.80;100300.44;5063556;28;1133;-30
2023/08/05 00:43:29;;;;;;;;;;;;;;;27.14;41.63;100298.44;5091687;28;1119;-29
2023/08/05 00:45:55;;;;;;;;;;;;;;;27.21;41.10;100297.69;5078465;28;1079;-25
2023/08/05 00:48:22;;;;;;;;;;;;;;;27.23;40.87;100296.44;5070684;28;1959;-26
2023/08/05 00:50:49;;;;;;;;;;;;;;;27.27;41.07;100296.88;5066799;28;1393;-25
2023/08/05 00:53:14;;;;;;;;;;;;;;;27.27;40.79;100296.88;5087923;28;1192;-27
2023/08/05 00:55:40;;;;;;;;;;;;;;;27.28;41.20;100298.56;5062061;28;1039;-26
2023/08/05 00:58:07;;;;;;;;;;;;;;;27.33;40.68;100296.09;5079782;28;924;-28
2023/08/05 01:00:32;;;;;;;;;;;;;;;27.31;40.60;100298.16;5079581;28;1140;-26
2023/08/05 01:02:58;;;;;;;;;;;;;;;27.31;40.86;100302.75;5100263;28;1061;-26
2023/08/05 01:05:23;;;;;;;;;;;;;;;27.36;40.35;100292.19;5081559;28;1041;-27
2023/08/05 01:07:50;;;;;;;;;;;;;;;27.33;40.38;100289.84;5061792;28;1134;-25
2023/08/05 01:10:15;;;;;;;;;;;;;;;27.38;40.77;100287.41;5063005;28;1969;-28
2023/08/05 01:12:41;;;;;;;;;;;;;;;27.44;40.89;100292.03;5080963;28;1090;-26
2023/08/05 01:15:07;;;;;;;;;;;;;;;27.44;40.60;100294.75;5095117;28;1062;-27
2023/08/05 01:17:33;;;;;;;;;;;;;;;27.36;40.29;100284.09;5099998;28;1054;-25
2023/08/05 01:19:59;;;;;;;;;;;;;;;27.42;40.26;100280.59;5099109;28;1123;-25
2023/08/05 01:22:32;;;;;;;;;;;;;;;27.44;40.24;100283.94;5081110;28;2055;-25
2023/08/05 01:24:59;;;;;;;;;;;;;;;27.47;40.60;100270.03;5093725;28;1193;-28
2023/08/05 01:27:25;;;;;;;;;;;;;;;27.53;40.22;100276.50;5073927;28;1238;-26
2023/08/05 01:29:51;;;;;;;;;;;;;;;27.49;40.04;100270.66;5086100;28;1981;-26
2023/08/05 01:32:17;;;;;;;;;;;;;;;27.48;40.13;100273.56;5068885;28;1154;-27
2023/08/05 01:34:43;;;;;;;;;;;;;;;27.50;40.18;100266.09;5092353;28;1273;-27
2023/08/05 01:37:08;;;;;;;;;;;;;;;27.55;40.39;100260.94;5079337;28;1075;-25
2023/08/05 01:39:34;;;;;;;;;;;;;;;27.55;40.46;100260.94;5092769;28;1151;-25
2023/08/05 01:41:59;;;;;;;;;;;;;;;27.53;39.93;100257.59;5074475;28;1235;-26
2023/08/05 01:44:25;;;;;;;;;;;;;;;27.57;40.21;100255.34;5079345;28;1123;-25
2023/08/05 01:46:50;;;;;;;;;;;;;;;27.63;39.94;100257.25;5091915;28;1051;-30
2023/08/05 01:49:16;;;;;;;;;;;;;;;27.60;40.16;100255.78;5085383;28;2001;-27
2023/08/05 01:51:42;;;;;;;;;;;;;;;27.59;39.97;100253.28;5098459;28;1047;-25
2023/08/05 01:54:07;;;;;;;;;;;;;;;27.58;40.06;100251.59;5092594;28;1034;-26
2023/08/05 01:56:33;;;;;;;;;;;;;;;27.62;39.98;100250.16;5080610;28;1126;-24
2023/08/05 01:58:58;;;;;;;;;;;;;;;27.63;40.05;100254.53;5074923;28;1258;-25
2023/08/05 02:01:39;;;;;;;;;;;;;;;27.65;40.10;100247.06;5078238;28;1038;-27
2023/08/05 02:04:04;;;;;;;;;;;;;;;27.66;40.13;100242.50;5072226;28;1397;-24
2023/08/05 02:06:30;;;;;;;;;;;;;;;27.68;39.90;100243.13;5083622;28;1226;-29
2023/08/05 02:08:55;;;;;;;;;;;;;;;27.70;39.95;100238.41;5084560;28;1909;-25
2023/08/05 02:11:21;;;;;;;;;;;;;;;27.65;39.69;100244.38;5083786;28;1170;-28
2023/08/05 02:13:47;;;;;;;;;;;;;;;27.68;39.77;100240.41;5087040;28;841;-27
2023/08/05 02:16:12;;;;;;;;;;;;;;;27.67;39.91;100241.47;5079916;28;1239;-25
2023/08/05 02:18:38;;;;;;;;;;;;;;;27.68;40.16;100237.72;5090456;28;1104;-27
2023/08/05 02:21:04;;;;;;;;;;;;;;;27.61;39.81;100248.50;5086636;28;1038;-27
2023/08/05 02:23:29;;;;;;;;;;;;;;;27.68;40.25;100243.13;5067893;28;1101;-29
2023/08/05 02:25:55;;;;;;;;;;;;;;;27.67;39.87;100245.00;5082932;28;907;-27
2023/08/05 02:28:21;;;;;;;;;;;;;;;27.64;40.04;100242.72;5098473;28;1898;-26
2023/08/05 02:30:46;;;;;;;;;;;;;;;27.67;39.56;100244.16;5066908;28;1192;-26
2023/08/05 02:33:12;;;;;;;;;;;;;;;27.66;39.96;100248.72;5090687;28;1162;-26
2023/08/05 02:35:38;;;;;;;;;;;;;;;27.72;40.07;100245.28;5061067;28;1482;-28
2023/08/05 02:38:03;;;;;;;;;;;;;;;27.61;39.50;100251.22;5097505;28;893;-30
2023/08/05 02:40:31;;;;;;;;;;;;;;;27.72;39.76;100247.13;5097403;28;1087;-26
2023/08/05 02:42:57;;;;;;;;;;;;;;;27.70;39.91;100251.91;5079588;28;1039;-26
2023/08/05 02:45:22;;;;;;;;;;;;;;;27.70;40.12;100252.75;5096464;28;1137;-27
2023/08/05 02:47:48;;;;;;;;;;;;;;;27.74;39.57;100250.50;5066876;28;1226;-28
2023/08/05 02:50:14;;;;;;;;;;;;;;;27.75;40.16;100254.84;5065938;28;1979;-27
2023/08/05 02:52:39;;;;;;;;;;;;;;;27.72;40.02;100252.53;5084638;28;1050;-26
2023/08/05 02:55:05;;;;;;;;;;;;;;;27.77;39.91;100249.25;5066332;28;1158;-26
2023/08/05 02:57:31;;;;;;;;;;;;;;;27.70;40.04;100251.91;5059591;28;1126;-27
2023/08/05 02:59:56;;;;;;;;;;;;;;;27.70;39.82;100249.19;5091472;28;1063;-24
2023/08/05 03:02:22;;;;;;;;;;;;;;;27.75;39.88;100250.28;5077308;28;906;-27
2023/08/05 03:04:48;;;;;;;;;;;;;;;27.72;39.70;100249.84;5073141;28;1166;-28
2023/08/05 03:07:13;;;;;;;;;;;;;;;27.73;40.48;100246.09;5097359;28;1075;-24
2023/08/05 03:09:39;;;;;;;;;;;;;;;27.87;40.36;100247.84;5075928;28;1914;-24
2023/08/05 03:12:07;;;;;;;;;;;;;;;27.77;40.75;100243.84;5072504;28;1145;-24
2023/08/05 03:14:34;;;;;;;;;;;;;;;27.87;40.60;100245.16;5073172;28;1261;-27
2023/08/05 03:17:01;;;;;;;;;;;;;;;27.80;41.03;100243.44;5071262;28;1338;-25
2023/08/05 03:19:27;;;;;;;;;;;;;;;27.84;40.91;100242.81;5090013;28;1155;-26
2023/08/05 03:21:53;;;;;;;;;;;;;;;27.89;40.96;100250.34;5045920;28;1151;-28
2023/08/05 03:24:18;;;;;;;;;;;;;;;27.81;40.73;100250.53;5073903;28;1419;-26
2023/08/05 03:26:49;;;;;;;;;;;;;;;27.82;40.86;100252.19;5078762;28;974;-25
2023/08/05 03:29:14;;;;;;;;;;;;;;;27.89;41.03;100254.91;5096304;28;1972;-25
2023/08/05 03:31:41;;;;;;;;;;;;;;;27.85;41.07;100255.31;5078621;28;1231;-26
2023/08/05 03:34:07;;;;;;;;;;;;;;;27.97;40.75;100252.88;5065447;28;1364;-28
2023/08/05 03:36:34;;;;;;;;;;;;;;;27.87;41.54;100247.84;5078765;28;1213;-26
2023/08/05 03:39:01;;;;;;;;;;;;;;;27.89;41.21;100239.53;5076669;28;1409;-28
2023/08/05 03:41:27;;;;;;;;;;;;;;;27.90;42.37;100249.31;5067617;28;1380;-25
2023/08/05 03:43:53;;;;;;;;;;;;;;;27.93;42.53;100245.34;5081663;28;1134;-24
2023/08/05 03:46:19;;;;;;;;;;;;;;;27.89;42.25;100244.94;5076741;28;1040;-25
2023/08/05 03:48:44;;;;;;;;;;;;;;;27.89;43.42;100250.34;5076458;28;1910;-24
2023/08/05 03:51:10;;;;;;;;;;;;;;;27.50;49.01;100247.19;5066833;28;879;-24
2023/08/05 03:53:35;;;;;;;;;;;;;;;27.21;52.21;100246.38;5094541;28;1153;-23
2023/08/05 03:56:01;;;;;;;;;;;;;;;27.53;52.39;100246.78;5087793;28;1524;-26
2023/08/05 03:58:27;;;;;;;;;;;;;;;27.54;52.38;100237.66;5078375;28;1293;-26
2023/08/05 04:00:53;;;;;;;;;;;;;;;27.54;53.31;100242.22;5078767;28;1388;-25
2023/08/05 04:03:18;;;;;;;;;;;;;;;27.84;52.72;100242.00;5078658;28;1138;-22
2023/08/05 04:05:44;;;;;;;;;;;;;;;27.93;52.84;100237.25;5078117;28;1054;-26
2023/08/05 04:08:11;;;;;;;;;;;;;;;28.25;52.77;100234.88;5096904;28;1173;-23
2023/08/05 04:10:40;;;;;;;;;;;;;;;28.15;50.77;100231.72;5096653;28;1909;-25
2023/08/05 04:13:10;;;;;;;;;;;;;;;28.35;51.21;100240.78;5067993;28;2503;-26
2023/08/05 04:15:38;;;;;;;;;;;;;;;28.60;49.14;100231.25;5083928;28;1921;-28
2023/08/05 04:18:04;;;;;;;;;;;;;;;28.51;48.67;100235.19;5066137;28;1785;-25
2023/08/05 04:20:30;;;;;;;;;;;;;;;28.44;48.42;100230.63;5094775;28;2145;-24
2023/08/05 04:22:56;;;;;;;;;;;;;;;28.59;47.82;100232.28;5093718;28;2191;-24
2023/08/05 04:25:22;;;;;;;;;;;;;;;28.70;46.84;100233.53;5095990;28;1929;-25
2023/08/05 04:27:47;;;;;;;;;;;;;;;28.73;46.27;100235.84;5095439;28;2219;-26
2023/08/05 04:30:13;;;;;;;;;;;;;;;28.79;46.01;100234.19;5095732;28;1968;-24
2023/08/05 04:32:39;;;;;;;;;;;;;;;28.71;46.16;100230.63;5096227;28;1107;-25
2023/08/05 04:35:05;;;;;;;;;;;;;;;28.77;45.24;100228.97;5095441;28;1194;-25
2023/08/05 04:37:31;;;;;;;;;;;;;;;28.75;45.30;100232.91;5095652;28;1246;-25
2023/08/05 04:39:56;;;;;;;;;;;;;;;28.95;44.16;100232.94;5095668;28;1285;-26
2023/08/05 04:42:22;;;;;;;;;;;;;;;28.80;44.37;100227.72;5095501;28;1336;-24
2023/08/05 04:44:48;;;;;;;;;;;;;;;28.87;44.12;100231.28;5095568;28;1195;-29
2023/08/05 04:47:13;;;;;;;;;;;;;;;28.89;43.60;100237.31;5095141;28;1210;-27
2023/08/05 04:49:42;;;;;;;;;;;;;;;28.89;43.82;100233.78;5095202;28;1977;-23
2023/08/05 04:52:08;;;;;;;;;;;;;;;28.66;44.12;100245.84;5093892;28;1293;-27
2023/08/05 04:54:45;;;;;;;;;;;;;;;28.77;43.67;100250.63;5095029;28;1226;-24
2023/08/05 04:57:11;;;;;;;;;;;;;;;28.75;43.11;100255.41;5094789;28;1817;-25
2023/08/05 04:59:37;;;;;;;;;;;;;;;28.54;43.29;100257.28;5095408;28;1102;-26
2023/08/05 05:02:02;;;;;;;;;;;;;;;28.51;43.82;100254.94;5095055;28;1040;-26
2023/08/05 05:04:28;;;;;;;;;;;;;;;28.67;43.17;100255.63;5095444;28;1035;-26
2023/08/05 05:06:53;;;;;;;;;;;;;;;28.57;43.44;100256.00;5095229;28;999;-25
2023/08/05 05:09:19;;;;;;;;;;;;;;;28.54;43.14;100261.84;5097775;28;1906;-25
2023/08/05 05:11:45;;;;;;;;;;;;;;;28.75;42.63;100262.69;5099148;28;1180;-27
2023/08/05 05:14:10;;;;;;;;;;;;;;;28.52;43.18;100263.91;5099141;28;1169;-25
2023/08/05 05:16:36;;;;;;;;;;;;;;;28.60;42.65;100267.25;5099079;28;1099;-26
2023/08/05 05:19:01;;;;;;;;;;;;;;;28.58;42.53;100263.94;5097250;28;1315;-27
2023/08/05 05:21:27;;;;;;;;;;;;;;;28.63;42.47;100257.91;5099417;28;1178;-26
2023/08/05 05:23:52;;;;;;;;;;;;;;;28.67;42.18;100261.88;5099594;28;1113;-24
2023/08/05 05:26:18;;;;;;;;;;;;;;;28.63;42.03;100257.91;5098440;28;1078;-25
2023/08/05 05:28:43;;;;;;;;;;;;;;;28.62;42.03;100253.53;5098743;28;2623;-25
2023/08/05 05:31:09;;;;;;;;;;;;;;;28.53;42.19;100252.88;5098761;28;1149;-26
2023/08/05 05:33:35;;;;;;;;;;;;;;;28.53;42.02;100247.47;5098774;28;1141;-26
2023/08/05 05:36:00;;;;;;;;;;;;;;;28.39;42.20;100252.03;5099065;28;1133;-26
2023/08/05 05:38:26;;;;;;;;;;;;;;;28.33;42.13;100250.97;5098882;28;1031;-27
2023/08/05 05:40:53;;;;;;;;;;;;;;;28.41;42.04;100249.13;5098802;28;1161;-24
2023/08/05 05:43:18;;;;;;;;;;;;;;;28.36;42.16;100241.63;5098655;28;1023;-24
2023/08/05 05:45:46;;;;;;;;;;;;;;;28.45;41.51;100253.91;5099041;28;1174;-26
2023/08/05 05:48:12;;;;;;;;;;;;;;;28.39;41.87;100248.47;5098519;28;1161;-27
2023/08/05 05:50:38;;;;;;;;;;;;;;;28.46;41.59;100250.16;5098653;28;1992;-26
2023/08/05 05:53:04;;;;;;;;;;;;;;;28.38;41.85;100247.63;5098281;28;1358;-27
2023/08/05 05:55:32;;;;;;;;;;;;;;;28.48;41.85;100242.69;5098314;28;1170;-27
2023/08/05 05:57:57;;;;;;;;;;;;;;;28.51;41.22;100230.59;5098556;28;2249;-27
2023/08/05 06:00:23;;;;;;;;;;;;;;;28.64;40.99;100227.09;5098433;28;1196;-27
2023/08/05 06:02:50;;;;;;;;;;;;;;;28.50;41.20;100222.69;5098101;28;1010;-25
2023/08/05 06:05:17;;;;;;;;;;;;;;;28.48;41.46;100231.84;5097650;28;1114;-27
2023/08/05 06:07:43;;;;;;;;;;;;;;;28.51;41.22;100235.19;5097974;28;1078;-27
2023/08/05 06:10:09;;;;;;;;;;;;;;;28.52;41.19;100232.28;5097956;28;1910;-31
2023/08/05 06:12:37;;;;;;;;;;;;;;;28.41;41.59;100236.41;5098344;28;1169;-25
2023/08/05 06:15:03;;;;;;;;;;;;;;;28.41;41.36;100241.00;5098375;28;1189;-25
2023/08/05 06:17:29;;;;;;;;;;;;;;;28.60;40.88;100240.22;5097756;28;1072;-24
2023/08/05 06:19:54;;;;;;;;;;;;;;;28.53;40.64;100239.34;5087854;28;1038;-25
2023/08/05 06:22:20;;;;;;;;;;;;;;;28.61;40.51;100243.75;5097184;28;1145;-29
2023/08/05 06:24:45;;;;;;;;;;;;;;;28.45;40.99;100247.66;5097928;28;1102;-26
2023/08/05 06:27:11;;;;;;;;;;;;;;;28.58;40.80;100246.84;5096366;28;1844;-24
2023/08/05 06:29:36;;;;;;;;;;;;;;;28.51;41.05;100244.13;5089744;28;1980;-26
2023/08/05 06:32:02;;;;;;;;;;;;;;;28.67;40.68;100236.66;5097983;28;1079;-24
2023/08/05 06:34:28;;;;;;;;;;;;;;;28.30;41.50;100240.53;5098373;28;1027;-24
2023/08/05 06:36:53;;;;;;;;;;;;;;;28.59;40.62;100233.09;5097934;28;1015;-24
2023/08/05 06:39:19;;;;;;;;;;;;;;;28.54;40.92;100241.03;5097432;28;1121;-27
2023/08/05 06:41:44;;;;;;;;;;;;;;;28.51;41.27;100240.59;5097577;28;1042;-27
2023/08/05 06:44:10;;;;;;;;;;;;;;;28.50;41.09;100228.09;5097477;28;1061;-25
2023/08/05 06:46:37;;;;;;;;;;;;;;;28.59;40.74;100238.53;5097441;28;1169;-25
2023/08/05 06:49:03;;;;;;;;;;;;;;;28.46;41.07;100239.34;5097151;28;1986;-24
2023/08/05 06:51:31;;;;;;;;;;;;;;;28.63;40.90;100230.03;5097242;28;1065;-26
2023/08/05 06:53:57;;;;;;;;;;;;;;;28.54;40.74;100234.78;5097458;28;1077;-26
2023/08/05 06:56:23;;;;;;;;;;;;;;;28.61;40.88;100246.47;5097393;28;1106;-23
2023/08/05 06:58:48;;;;;;;;;;;;;;;28.48;40.79;100241.84;5087394;28;1887;-27
2023/08/05 07:01:15;;;;;;;;;;;;;;;28.61;40.58;100241.06;5096707;28;1058;-28
2023/08/05 07:03:42;;;;;;;;;;;;;;;28.56;40.70;100233.53;5097102;28;1145;-26
2023/08/05 07:06:08;;;;;;;;;;;;;;;28.65;40.56;100234.16;5097149;28;1022;-26
2023/08/05 07:08:33;;;;;;;;;;;;;;;28.54;40.73;100235.63;5096550;28;1890;-25
2023/08/05 07:10:59;;;;;;;;;;;;;;;28.60;40.59;100233.94;5097285;28;1153;-25
2023/08/05 07:13:25;;;;;;;;;;;;;;;28.58;40.58;100230.63;5097176;28;1098;-27
2023/08/05 07:15:51;;;;;;;;;;;;;;;28.63;40.58;100225.41;5096332;28;1030;-26
2023/08/05 07:18:16;;;;;;;;;;;;;;;28.60;40.56;100232.09;5096074;28;1018;-24
2023/08/05 07:20:42;;;;;;;;;;;;;;;28.59;40.45;100229.59;5097033;28;1098;-23
2023/08/05 07:23:07;;;;;;;;;;;;;;;28.67;40.33;100231.25;5096462;28;1026;-26
2023/08/05 07:25:33;;;;;;;;;;;;;;;28.63;40.63;100221.91;5096709;28;990;-26
2023/08/05 07:27:58;;;;;;;;;;;;;;;28.63;40.26;100222.72;5071220;28;2317;-24
2023/08/05 07:30:24;;;;;;;;;;;;;;;28.70;40.02;100220.00;5087395;28;1902;-27
2023/08/05 07:32:50;;;;;;;;;;;;;;;28.83;39.90;100232.72;5096410;28;1011;-24
2023/08/05 07:35:15;;;;;;;;;;;;;;;28.66;40.26;100222.28;5096488;28;1042;-26
2023/08/05 07:37:44;;;;;;;;;;;;;;;28.83;39.93;100235.44;5097104;28;1066;-25
2023/08/05 07:40:13;;;;;;;;;;;;;;;28.63;40.22;100238.94;5096147;28;1035;-25
2023/08/05 07:42:39;;;;;;;;;;;;;;;28.87;39.82;100243.97;5096280;28;1496;-26
2023/08/05 07:45:09;;;;;;;;;;;;;;;28.56;40.35;100247.06;5093384;28;1286;-25
2023/08/05 07:47:41;;;;;;;;;;;;;;;28.58;40.50;100231.44;5096070;28;1062;-25
2023/08/05 07:50:07;;;;;;;;;;;;;;;28.48;40.71;100231.84;5094732;28;1902;-25
2023/08/05 07:52:34;;;;;;;;;;;;;;;28.72;40.58;100226.91;5093635;28;901;-24
2023/08/05 07:55:00;;;;;;;;;;;;;;;28.87;39.86;100231.28;5096554;28;1094;-24
2023/08/05 07:57:25;;;;;;;;;;;;;;;28.70;40.10;100225.44;5093171;28;2369;-24
2023/08/05 07:59:52;;;;;;;;;;;;;;;28.69;40.70;100227.31;5090301;28;1118;-25
2023/08/05 08:02:17;;;;;;;;;;;;;;;28.80;40.09;100225.00;5095901;28;1054;-25
2023/08/05 08:04:44;;;;;;;;;;;;;;;28.68;40.23;100230.19;5095803;28;1030;-24
2023/08/05 08:07:10;;;;;;;;;;;;;;;28.67;40.23;100228.56;5096305;28;1169;-25
2023/08/05 08:09:35;;;;;;;;;;;;;;;28.65;40.39;100238.75;5095482;28;1898;-25
2023/08/05 08:12:01;;;;;;;;;;;;;;;28.57;40.78;100232.50;5096183;28;1177;-24
2023/08/05 08:14:26;;;;;;;;;;;;;;;28.54;40.85;100241.03;5096332;28;1098;-25
2023/08/05 08:16:52;;;;;;;;;;;;;;;28.56;40.54;100235.41;5087834;28;1050;-24
2023/08/05 08:19:18;;;;;;;;;;;;;;;28.43;40.94;100231.63;5095834;28;1173;-27
2023/08/05 08:21:45;;;;;;;;;;;;;;;28.50;40.91;100236.22;5096183;28;1217;-25
2023/08/05 08:24:10;;;;;;;;;;;;;;;28.50;40.74;100231.66;5095935;28;1069;-25
2023/08/05 08:26:36;;;;;;;;;;;;;;;28.50;40.60;100226.25;5095946;28;1265;-24
2023/08/05 08:29:01;;;;;;;;;;;;;;;28.68;40.22;100222.94;5095212;28;2444;-23
2023/08/05 08:31:30;;;;;;;;;;;;;;;28.89;40.04;100221.09;5095634;28;1102;-27
2023/08/05 08:33:58;;;;;;;;;;;;;;;28.69;40.60;100221.91;5095295;28;1023;-26
2023/08/05 08:36:24;;;;;;;;;;;;;;;28.62;40.50;100229.19;5096120;28;1197;-25
2023/08/05 08:38:50;;;;;;;;;;;;;;;28.66;40.38;100229.59;5095290;28;1010;-26
2023/08/05 08:41:15;;;;;;;;;;;;;;;28.52;40.66;100218.75;5095072;28;884;-24
2023/08/05 08:43:41;;;;;;;;;;;;;;;28.56;40.85;100225.41;5096064;28;1026;-25
2023/08/05 08:46:07;;;;;;;;;;;;;;;28.70;40.12;100217.31;5081980;28;1214;-25
2023/08/05 08:48:35;;;;;;;;;;;;;;;28.58;40.64;100212.50;5081349;28;1094;-25
2023/08/05 08:51:00;;;;;;;;;;;;;;;28.71;39.88;100208.97;5099896;28;1114;-26
2023/08/05 08:53:26;;;;;;;;;;;;;;;28.75;39.51;100211.28;5092331;28;893;-29
2023/08/05 08:55:51;;;;;;;;;;;;;;;28.67;40.12;100202.34;5093493;28;1154;-25
2023/08/05 08:58:17;;;;;;;;;;;;;;;28.65;40.34;100203.56;5097042;28;1811;-27
2023/08/05 09:00:42;;;;;;;;;;;;;;;28.71;40.06;100211.69;5099466;28;1047;-27
2023/08/05 09:03:08;;;;;;;;;;;;;;;28.72;39.53;100201.69;5099937;28;999;-24
2023/08/05 09:05:42;;;;;;;;;;;;;;;28.68;39.78;100193.16;5077205;28;950;-24
2023/08/05 09:08:07;;;;;;;;;;;;;;;28.79;39.37;100197.13;5099443;28;1112;-25
2023/08/05 09:10:33;;;;;;;;;;;;;;;28.79;39.38;100190.88;5081320;28;1906;-26
2023/08/05 09:13:00;;;;;;;;;;;;;;;28.87;39.34;100185.25;5099433;28;1092;-27
2023/08/05 09:15:37;;;;;;;;;;;;;;;29.00;39.13;100195.28;5099241;28;1142;-25
2023/08/05 09:18:04;;;;;;;;;;;;;;;28.86;39.18;100178.19;5098338;28;1193;-24
2023/08/05 09:20:33;;;;;;;;;;;;;;;28.73;39.53;100173.59;5098541;28;1186;-26
2023/08/05 09:23:00;;;;;;;;;;;;;;;28.71;39.75;100186.53;5098532;28;1332;-27
2023/08/05 09:25:26;;;;;;;;;;;;;;;28.76;39.76;100183.19;5098583;28;1258;-25
2023/08/05 09:27:53;;;;;;;;;;;;;;;28.81;38.94;100181.50;5096500;28;1800;-25
2023/08/05 09:30:19;;;;;;;;;;;;;;;28.76;39.45;100159.63;5098573;28;1902;-26
2023/08/05 09:32:45;;;;;;;;;;;;;;;28.81;39.48;100177.97;5098723;28;1241;-27
2023/08/05 09:35:11;;;;;;;;;;;;;;;28.75;39.51;100171.50;5098819;28;1242;-25
2023/08/05 09:37:38;;;;;;;;;;;;;;;28.78;39.33;100167.56;5098758;28;1211;-29
2023/08/05 09:40:05;;;;;;;;;;;;;;;28.90;39.33;100160.47;5098759;28;1266;-28
2023/08/05 09:42:31;;;;;;;;;;;;;;;29.03;38.33;100153.44;5080016;28;1325;-29
2023/08/05 09:45:02;;;;;;;;;;;;;;;28.90;39.21;100156.91;5098510;28;1182;-28
2023/08/05 09:47:30;;;;;;;;;;;;;;;28.97;38.89;100160.50;5098195;28;1190;-28
2023/08/05 09:49:56;;;;;;;;;;;;;;;28.99;38.82;100161.13;5098257;28;1917;-27
2023/08/05 09:52:23;;;;;;;;;;;;;;;28.91;38.77;100162.13;5098263;28;1343;-27
2023/08/05 09:54:55;;;;;;;;;;;;;;;28.96;38.78;100165.03;5098164;28;1257;-23
2023/08/05 09:57:20;;;;;;;;;;;;;;;28.93;38.55;100156.50;5096125;28;2305;-29
2023/08/05 09:59:46;;;;;;;;;;;;;;;29.03;38.33;100158.84;5079322;28;1416;-26
2023/08/05 10:02:12;;;;;;;;;;;;;;;29.03;38.59;100156.94;5097803;28;1197;-25
2023/08/05 10:04:39;;;;;;;;;;;;;;;29.05;38.89;100152.16;5097451;28;1320;-25
2023/08/05 10:07:05;;;;;;;;;;;;;;;28.87;38.82;100139.25;5098525;28;1316;-26
2023/08/05 10:09:30;;;;;;;;;;;;;;;28.96;39.24;100142.56;5079571;28;1902;-26
2023/08/05 10:11:56;;;;;;;;;;;;;;;28.94;39.24;100139.22;5097806;28;1261;-26
2023/08/05 10:14:22;;;;;;;;;;;;;;;29.01;38.68;100147.38;5079709;28;1151;-24
2023/08/05 10:16:47;;;;;;;;;;;;;;;29.03;39.03;100154.22;5094352;28;1198;-24
2023/08/05 10:19:13;;;;;;;;;;;;;;;29.01;39.09;100159.03;5052972;28;1321;-29
2023/08/05 10:21:40;;;;;;;;;;;;;;;29.03;38.61;100150.72;5098249;28;1082;-24
2023/08/05 10:24:06;;;;;;;;;;;;;;;28.85;38.77;100155.69;5097602;28;1046;-23
2023/08/05 10:27:01;;;;;;;;;;;;;;;28.94;38.30;100152.75;5098276;28;1086;-26
2023/08/05 10:29:26;;;;;;;;;;;;;;;28.94;38.62;100145.50;5070219;28;2692;-28
2023/08/05 10:32:07;;;;;;;;;;;;;;;28.97;38.74;100146.97;5098136;28;1237;-25
2023/08/05 10:34:32;;;;;;;;;;;;;;;29.02;37.85;100133.63;5097936;28;1169;-26
2023/08/05 10:36:58;;;;;;;;;;;;;;;29.13;38.11;100136.75;5097590;28;1010;-27
2023/08/05 10:39:39;;;;;;;;;;;;;;;29.00;37.58;100140.28;5097334;28;1105;-24
2023/08/05 10:42:17;;;;;;;;;;;;;;;28.98;38.27;100140.50;5097858;28;883;-27
2023/08/05 10:44:42;;;;;;;;;;;;;;;28.96;38.52;100134.44;5097764;28;1162;-26
2023/08/05 10:47:08;;;;;;;;;;;;;;;29.01;38.29;100131.94;5084686;28;1090;-27
2023/08/05 10:49:33;;;;;;;;;;;;;;;29.08;38.32;100138.19;5078359;28;1901;-26
2023/08/05 10:51:59;;;;;;;;;;;;;;;28.85;38.48;100128.63;5079546;28;1235;-27
2023/08/05 10:54:24;;;;;;;;;;;;;;;28.95;38.29;100120.06;5077606;28;1149;-24
2023/08/05 10:56:50;;;;;;;;;;;;;;;28.99;38.40;100127.78;5079011;28;1163;-25
2023/08/05 10:59:16;;;;;;;;;;;;;;;28.91;38.49;100132.34;5093555;28;2324;-27
2023/08/05 11:01:55;;;;;;;;;;;;;;;29.14;37.74;100124.84;5078975;28;1210;-28
2023/08/05 11:04:30;;;;;;;;;;;;;;;29.16;37.70;100125.47;5097059;28;1075;-26
2023/08/05 11:06:56;;;;;;;;;;;;;;;29.07;37.78;100114.03;5094727;28;1325;-28
2023/08/05 11:09:22;;;;;;;;;;;;;;;28.95;38.67;100124.63;5097152;28;1905;-24
2023/08/05 11:11:48;;;;;;;;;;;;;;;28.89;38.74;100110.09;5097371;28;986;-25
2023/08/05 11:14:14;;;;;;;;;;;;;;;28.96;38.40;100113.59;5078844;28;1194;-25
2023/08/05 11:16:43;;;;;;;;;;;;;;;28.87;38.62;100112.16;5096633;28;1038;-26
2023/08/05 11:19:11;;;;;;;;;;;;;;;28.72;38.83;100113.22;5085408;28;1258;-30
2023/08/05 11:21:36;;;;;;;;;;;;;;;29.16;37.98;100114.66;5083309;28;1094;-25
2023/08/05 11:24:02;;;;;;;;;;;;;;;29.04;37.96;100114.47;5077480;28;1028;-25
2023/08/05 11:26:27;;;;;;;;;;;;;;;29.03;38.34;100107.38;5096253;28;1210;-27
2023/08/05 11:28:53;;;;;;;;;;;;;;;28.90;38.35;100110.91;5093485;28;2177;-27
2023/08/05 11:31:25;;;;;;;;;;;;;;;28.98;38.42;100104.47;5096258;28;1028;-28
2023/08/05 11:33:51;;;;;;;;;;;;;;;28.73;39.33;100093.22;5096943;28;1237;-25
2023/08/05 11:36:16;;;;;;;;;;;;;;;28.90;38.67;100090.09;5096336;28;1221;-27
2023/08/05 11:38:42;;;;;;;;;;;;;;;29.02;38.10;100084.88;5096276;28;1265;-27
2023/08/05 11:41:07;;;;;;;;;;;;;;;29.02;38.17;100081.34;5096075;28;1301;-25
2023/08/05 11:43:35;;;;;;;;;;;;;;;28.98;37.88;100085.53;5078242;28;1360;-26
2023/08/05 11:46:01;;;;;;;;;;;;;;;29.02;38.21;100084.03;5096315;28;1174;-25
2023/08/05 11:48:27;;;;;;;;;;;;;;;28.99;38.64;100084.47;5078309;28;1257;-28
2023/08/05 11:50:57;;;;;;;;;;;;;;;29.02;38.35;100082.19;5096204;28;1913;-24
2023/08/05 11:53:23;;;;;;;;;;;;;;;29.10;37.89;100081.09;5096055;28;1281;-24
2023/08/05 11:55:49;;;;;;;;;;;;;;;29.15;37.60;100083.16;5096137;28;1257;-24
2023/08/05 11:58:14;;;;;;;;;;;;;;;28.98;37.83;100074.69;5093124;28;1760;-25
2023/08/05 12:00:47;;;;;;;;;;;;;;;28.98;38.35;100075.50;5096046;28;1194;-25
2023/08/05 12:03:13;;;;;;;;;;;;;;;29.07;38.29;100068.84;5096319;28;1210;-28
2023/08/05 12:05:42;;;;;;;;;;;;;;;29.20;37.85;100067.97;5093943;28;1405;-25
2023/08/05 12:08:08;;;;;;;;;;;;;;;29.21;37.71;100058.78;5095455;28;1308;-25
2023/08/05 12:10:33;;;;;;;;;;;;;;;29.02;37.97;100060.53;5095646;28;1988;-27
2023/08/05 12:13:03;;;;;;;;;;;;;;;28.98;38.84;100056.56;5095946;28;1108;-26
2023/08/05 12:15:29;;;;;;;;;;;;;;;28.92;38.73;100050.09;5096238;28;1194;-29
2023/08/05 12:17:55;;;;;;;;;;;;;;;28.56;38.23;99967.56;5095348;28;1042;-24
2023/08/05 12:20:22;;;;;;;;;;;;;;;28.99;38.25;100036.59;5096041;28;1159;-28
2023/08/05 12:22:48;;;;;;;;;;;;;;;29.01;38.21;100033.66;5096221;28;1240;-26
2023/08/05 12:25:13;;;;;;;;;;;;;;;28.93;38.80;100029.25;5096128;28;1114;-27
2023/08/05 12:27:39;;;;;;;;;;;;;;;28.96;38.54;100032.38;5091571;28;2337;-26
2023/08/05 12:30:05;;;;;;;;;;;;;;;29.05;38.05;100027.59;5089555;28;1988;-24
2023/08/05 12:32:33;;;;;;;;;;;;;;;28.95;38.26;100027.19;5096008;28;1106;-26
2023/08/05 12:35:09;;;;;;;;;;;;;;;28.98;38.43;100020.56;5095425;28;1492;-26
2023/08/05 12:37:36;;;;;;;;;;;;;;;29.00;38.87;100013.03;5096296;28;1038;-29
2023/08/05 12:40:05;;;;;;;;;;;;;;;29.01;38.51;100015.50;5095481;28;1085;-27
2023/08/05 12:42:30;;;;;;;;;;;;;;;29.09;38.05;100009.06;5095520;28;1030;-26
2023/08/05 12:44:59;;;;;;;;;;;;;;;29.01;38.24;100006.59;5095969;28;1089;-26